デンパサール国際空港の過去48時間の天気

デンパサール国際空港 (Ngurah Rai International Airport)

現在時刻: 6/19 14:00 WITA (6/19 06:00 UTC) 以下の時間は現地時間です。

過去48時間のMETAR気象情報
時間 風向 風速(m/s) 視程 気温(℃) 湿度(%) 気圧(hPa) 天気現象
19 13:30 5 10km以上 28 70 1011
19 13:00 5 10km以上 28 70 1011
19 12:30 5 10km以上 28 70 1012
19 12:00 5 10km以上 28 70 1012
19 11:30 東南東 5 10km以上 28 66 1012
19 11:00 4 10km以上 27 70 1012
19 10:30 4 10km以上 28 66 1013
19 10:00 4 10km以上 27 70 1013
19 09:30 3 10km以上 26 79 1013
19 09:00 北西 3 10km以上 27 74 1013
19 08:30 2 10km以上 26 79 1013
19 08:00 2 10km以上 24 89 1013
19 07:30 2 10km以上 23 94 1013
19 07:00 2 10km以上 23 94 1012
19 06:30 西南西 2 10km以上 23 94 1012
19 06:00 北北西 2 10km以上 23 94 1012
19 05:30 不定 1 10km以上 23 94 1012
19 05:00 不定 1 10km以上 24 89 1012
19 04:30 不定 1 10km以上 24 89 1012
19 04:00 2 10km以上 24 89 1011
19 03:30 東南東 3 10km以上 25 89 1012
19 03:00 3 10km以上 25 89 1012
19 02:30 3 10km以上 25 89 1012
19 02:00 3 10km以上 25 89 1012
19 01:30 4 10km以上 25 83 1012
19 01:00 3 10km以上 25 89 1012
19 00:30 3 10km以上 25 89 1012
19 00:00 4 10km以上 25 89 1012
18 23:30 4 10km以上 25 89 1012
18 23:00 東南東 5 10km以上 25 94 1012
18 22:30 東南東 4 10km以上 25 94 1012
18 22:00 東南東 5 10km以上 25 89 1012
18 21:30 東南東 5 10km以上 25 89 1012
18 21:00 東南東 5 10km以上 25 89 1012
18 19:30 東南東 4 10km以上 25 89 1011
18 19:00 東南東 5 10km以上 26 84 1011
18 18:30 東南東 5 10km以上 26 84 1011
18 16:30 東南東 5 10km以上 28 74 1010
18 16:00 東南東 6 10km以上 28 74 1010
18 15:30 東南東 6 10km以上 28 74 1010
18 15:00 6 10km以上 28 74 1010
18 14:30 6 10km以上 29 70 1010
18 14:00 東南東 6 10km以上 29 66 1011
18 13:30 東南東 6 10km以上 28 70 1011
18 13:00 東南東 6 10km以上 28 70 1011
18 12:30 東南東 7 10km以上 28 70 1012
18 12:00 8 10km以上 28 70 1012
18 11:30 6 10km以上 28 70 1013
18 11:00 6 10km以上 28 70 1013
18 10:30 6 10km以上 28 70 1013
18 10:00 5 10km以上 27 74 1014
18 09:30 4 10km以上 27 74 1014
18 09:00 不定 1 10km以上 27 70 1014
18 08:30 南西 2 10km以上 26 74 1014
18 08:00 北北西 2 10km以上 24 89 1013
18 07:30 不定 1 10km以上 24 89 1013
18 07:00 2 10km以上 23 94 1013
18 06:30 3 10km以上 23 94 1013
18 06:00 2 10km以上 24 89 1013
18 05:30 2 10km以上 24 89 1012
18 05:00 北東 2 10km以上 24 89 1012
18 04:00 4 10km以上 24 89 1012
17 21:00 東南東 5 10km以上 26 84 1013
17 20:30 東南東 4 10km以上 26 84 1012
17 20:00 東南東 5 10km以上 26 84 1012
17 19:30 4 10km以上 26 84 1012
17 19:00 5 10km以上 26 84 1012
17 18:00 東南東 6 10km以上 27 79 1011
17 17:30 東南東 7 10km以上 27 79 1011
17 17:00 東南東 6 10km以上 27 79 1011
17 16:30 7 10km以上 28 74 1011
17 16:00 東南東 8 10km以上 28 74 1011
17 15:30 東南東 8 10km以上 28 74 1011
17 15:00 南東 8 10km以上 28 74 1011
17 14:30 東南東 8 10km以上 28 70 1011
WADD 190530Z 10009KT 9999 FEW015 28/22 Q1011 NOSIG
WADD 190500Z 09009KT 9999 FEW015 28/22 Q1011 NOSIG
WADD 190430Z 10010KT 9999 FEW015 28/22 Q1012 NOSIG
WADD 190400Z 10009KT 9999 FEW015 28/22 Q1012 NOSIG
WADD 190330Z 11009KT 9999 FEW015 28/21 Q1012 NOSIG
WADD 190300Z 10008KT 9999 FEW015 27/21 Q1012 NOSIG
WADD 190230Z 10008KT 9999 FEW015 28/21 Q1013 NOSIG
WADD 190200Z 09008KT 9999 FEW015 27/21 Q1013 NOSIG
WADD 190130Z 09006KT 9999 FEW015 26/22 Q1013 NOSIG
WADD 190100Z 32005KT 9999 FEW015 27/22 Q1013 NOSIG
WADD 190030Z 35004KT 9999 FEW015 26/22 Q1013 NOSIG
WADD 190000Z 01003KT 9999 SCT015 24/22 Q1013 NOSIG
WADD 182330Z 36004KT 9999 FEW017 23/22 Q1013 NOSIG
WADD 182300Z 35004KT 9999 FEW017 23/22 Q1012 NOSIG
WADD 182230Z 25003KT 9999 SCT017 23/22 Q1012 NOSIG
WADD 182200Z 34004KT 9999 BKN015 23/22 Q1012 NOSIG
WADD 182130Z VRB02KT 9999 SCT017 23/22 Q1012 NOSIG
WADD 182100Z VRB02KT 9999 BKN017 24/22 Q1012 NOSIG
WADD 182030Z VRB02KT 9999 SCT017 24/22 Q1012 NOSIG
WADD 182000Z 10004KT 9999 SCT017 24/22 Q1011 NOSIG
WADD 181930Z 11005KT 9999 FEW017 25/23 Q1012 NOSIG
WADD 181900Z 10006KT 9999 SCT017 25/23 Q1012 NOSIG
WADD 181830Z 08005KT 9999 BKN017 25/23 Q1012 NOSIG
WADD 181800Z 09006KT 9999 FEW017 25/23 Q1012 NOSIG
WADD 181730Z 09007KT 9999 FEW017 25/22 Q1012 NOSIG
WADD 181700Z 10005KT 9999 BKN017 25/23 Q1012 NOSIG
WADD 181630Z 08006KT 9999 BKN017 25/23 Q1012 NOSIG
WADD 181600Z 10007KT 9999 BKN017 25/23 Q1012 NOSIG
WADD 181530Z 10008KT 9999 BKN017 25/23 Q1012 NOSIG
WADD 181500Z 11009KT 9999 BKN017 25/24 Q1012 NOSIG
WADD 181430Z 11008KT 9999 BKN017 25/24 Q1012 NOSIG
WADD 181400Z 12009KT 9999 FEW018 25/23 Q1012 NOSIG
WADD 181330Z 12009KT 9999 FEW018 25/23 Q1012 NOSIG
WADD 181300Z 12009KT 9999 FEW018 25/23 Q1012 NOSIG
WADD 181130Z 11007KT 9999 FEW017 25/23 Q1011 NOSIG
WADD 181100Z 12009KT 9999 FEW017 26/23 Q1011 NOSIG
WADD 181030Z 12009KT 9999 FEW017 26/23 Q1011 NOSIG
WADD 180830Z 12010KT 9999 FEW016 28/23 Q1010 NOSIG
WADD 180800Z 11012KT 9999 FEW016 28/23 Q1010 NOSIG
WADD 180730Z 11011KT 9999 FEW016 28/23 Q1010 NOSIG
WADD 180700Z 10011KT 9999 FEW016 28/23 Q1010 NOSIG
WADD 180630Z 09011KT 9999 FEW017 29/23 Q1010 NOSIG
WADD 180600Z 12011KT 9999 FEW017 29/22 Q1011 NOSIG
WADD 180530Z 12011KT 9999 FEW017 28/22 Q1011 NOSIG
WADD 180500Z 12012KT 9999 FEW017 28/22 Q1011 NOSIG
WADD 180430Z 11013KT 9999 FEW017 28/22 Q1012 NOSIG
WADD 180400Z 10016KT 9999 FEW017 28/22 Q1012 NOSIG
WADD 180330Z 10012KT 9999 FEW017 28/22 Q1013 NOSIG
WADD 180300Z 10012KT 9999 FEW017 28/22 Q1013 NOSIG
WADD 180230Z 10012KT 9999 FEW017 28/22 Q1013 NOSIG
WADD 180200Z 10010KT 9999 FEW017 27/22 Q1014 NOSIG
WADD 180130Z 10007KT 9999 FEW017 27/22 Q1014 NOSIG
WADD 180100Z VRB02KT 9999 FEW017 27/21 Q1014 NOSIG
WADD 180030Z 22003KT 9999 FEW017 26/21 Q1014 NOSIG
WADD 180000Z 34003KT 9999 SCT017 24/22 Q1013 NOSIG
WADD 172330Z VRB02KT 9999 FEW017 24/22 Q1013 NOSIG
WADD 172300Z 35003KT 9999 BKN017 23/22 Q1013 NOSIG
WADD 172230Z 35005KT 9999 BKN017 23/22 Q1013 NOSIG
WADD 172200Z 36004KT 9999 SCT016 24/22 Q1013 NOSIG
WADD 172130Z 01004KT 9999 BKN016 24/22 Q1012 NOSIG
WADD 172100Z 04004KT 9999 SCT016 24/22 Q1012 NOSIG
WADD 172000Z 08007KT 9999 SCT016 24/22 Q1012 NOSIG
WADD 171300Z 11010KT 9999 FEW017 26/23 Q1013 NOSIG
WADD 171230Z 11008KT 9999 FEW017 26/23 Q1012 NOSIG
WADD 171200Z 11009KT 9999 FEW017 26/23 Q1012 NOSIG
WADD 171130Z 10008KT 9999 FEW017 26/23 Q1012 NOSIG
WADD 171100Z 10009KT 9999 FEW017 26/23 Q1012 NOSIG
WADD 171000Z 11011KT 9999 FEW017 27/23 Q1011 NOSIG
WADD 170930Z 11013KT 9999 FEW017 27/23 Q1011 NOSIG
WADD 170900Z 11011KT 9999 FEW017 27/23 Q1011 NOSIG
WADD 170830Z 10013KT 9999 FEW017 28/23 Q1011 NOSIG
WADD 170800Z 12015KT 9999 FEW017 28/23 Q1011 NOSIG
WADD 170730Z 12015KT 9999 FEW017 28/23 Q1011 NOSIG
WADD 170700Z 13016KT 9999 FEW017 28/23 Q1011 NOSIG
WADD 170630Z 12015KT 9999 FEW017 28/22 Q1011 NOSIG